sensor_id;sensor_type;location;lat;lon;timestamp;temperature;humidity
16032;DHT22;8120;48.308;8.914;2024-01-16T00:00:17;-3.40;71.40
16032;DHT22;8120;48.308;8.914;2024-01-16T00:02:47;-3.50;71.20
16032;DHT22;8120;48.308;8.914;2024-01-16T00:05:15;-3.40;71.50
16032;DHT22;8120;48.308;8.914;2024-01-16T00:07:43;-3.40;71.10
16032;DHT22;8120;48.308;8.914;2024-01-16T00:10:11;-3.50;71.70
16032;DHT22;8120;48.308;8.914;2024-01-16T00:12:39;-3.50;71.40
16032;DHT22;8120;48.308;8.914;2024-01-16T00:15:09;-3.50;71.20
16032;DHT22;8120;48.308;8.914;2024-01-16T00:17:37;-3.50;71.70
16032;DHT22;8120;48.308;8.914;2024-01-16T00:20:08;-3.50;71.70
16032;DHT22;8120;48.308;8.914;2024-01-16T00:22:36;-3.50;72.00
16032;DHT22;8120;48.308;8.914;2024-01-16T00:25:05;-3.50;72.30
16032;DHT22;8120;48.308;8.914;2024-01-16T00:27:33;-3.50;72.00
16032;DHT22;8120;48.308;8.914;2024-01-16T00:30:01;-3.50;72.30
16032;DHT22;8120;48.308;8.914;2024-01-16T00:32:28;-3.60;72.20
16032;DHT22;8120;48.308;8.914;2024-01-16T00:34:56;-3.60;72.20
16032;DHT22;8120;48.308;8.914;2024-01-16T00:37:26;-3.50;72.00
16032;DHT22;8120;48.308;8.914;2024-01-16T00:39:53;-3.60;71.80
16032;DHT22;8120;48.308;8.914;2024-01-16T00:42:21;-3.60;71.70
16032;DHT22;8120;48.308;8.914;2024-01-16T00:44:49;-3.60;71.50
16032;DHT22;8120;48.308;8.914;2024-01-16T00:47:17;-3.60;71.90
16032;DHT22;8120;48.308;8.914;2024-01-16T00:49:45;-3.50;71.10
16032;DHT22;8120;48.308;8.914;2024-01-16T00:52:14;-3.60;71.60
16032;DHT22;8120;48.308;8.914;2024-01-16T00:54:43;-3.60;71.80
16032;DHT22;8120;48.308;8.914;2024-01-16T00:57:11;-3.60;71.70
16032;DHT22;8120;48.308;8.914;2024-01-16T00:59:42;-3.60;71.50
16032;DHT22;8120;48.308;8.914;2024-01-16T01:02:10;-3.60;71.70
16032;DHT22;8120;48.308;8.914;2024-01-16T01:04:38;-3.60;71.80
16032;DHT22;8120;48.308;8.914;2024-01-16T01:07:08;-3.70;71.40
16032;DHT22;8120;48.308;8.914;2024-01-16T01:09:36;-3.70;71.80
16032;DHT22;8120;48.308;8.914;2024-01-16T01:12:05;-3.70;71.50
16032;DHT22;8120;48.308;8.914;2024-01-16T01:14:34;-3.70;71.70
16032;DHT22;8120;48.308;8.914;2024-01-16T01:17:02;-3.70;71.40
16032;DHT22;8120;48.308;8.914;2024-01-16T01:19:30;-3.70;71.50
16032;DHT22;8120;48.308;8.914;2024-01-16T01:21:58;-3.80;71.50
16032;DHT22;8120;48.308;8.914;2024-01-16T01:24:26;-3.80;71.50
16032;DHT22;8120;48.308;8.914;2024-01-16T01:26:54;-3.90;71.20
16032;DHT22;8120;48.308;8.914;2024-01-16T01:29:23;-4.00;71.30
16032;DHT22;8120;48.308;8.914;2024-01-16T01:31:51;-4.10;71.80
16032;DHT22;8120;48.308;8.914;2024-01-16T01:34:19;-4.30;72.30
16032;DHT22;8120;48.308;8.914;2024-01-16T01:36:47;-4.40;72.50
16032;DHT22;8120;48.308;8.914;2024-01-16T01:39:15;-4.50;73.50
16032;DHT22;8120;48.308;8.914;2024-01-16T01:41:43;-4.70;73.80
16032;DHT22;8120;48.308;8.914;2024-01-16T01:44:11;-4.80;74.40
16032;DHT22;8120;48.308;8.914;2024-01-16T01:46:44;-4.90;74.80
16032;DHT22;8120;48.308;8.914;2024-01-16T01:49:14;-5.00;75.20
16032;DHT22;8120;48.308;8.914;2024-01-16T01:51:43;-5.00;75.30
16032;DHT22;8120;48.308;8.914;2024-01-16T01:54:12;-5.10;75.30
16032;DHT22;8120;48.308;8.914;2024-01-16T01:56:44;-5.10;75.50
16032;DHT22;8120;48.308;8.914;2024-01-16T01:59:13;-5.20;75.30
16032;DHT22;8120;48.308;8.914;2024-01-16T02:01:43;-5.30;75.80
16032;DHT22;8120;48.308;8.914;2024-01-16T02:04:14;-5.50;76.20
16032;DHT22;8120;48.308;8.914;2024-01-16T02:06:42;-5.40;76.70
16032;DHT22;8120;48.308;8.914;2024-01-16T02:09:11;-5.50;76.40
16032;DHT22;8120;48.308;8.914;2024-01-16T02:11:40;-5.50;76.70
16032;DHT22;8120;48.308;8.914;2024-01-16T02:14:08;-5.60;77.00
16032;DHT22;8120;48.308;8.914;2024-01-16T02:16:37;-5.50;77.20
16032;DHT22;8120;48.308;8.914;2024-01-16T02:19:07;-5.50;77.00
16032;DHT22;8120;48.308;8.914;2024-01-16T02:21:38;-5.50;76.80
16032;DHT22;8120;48.308;8.914;2024-01-16T02:24:09;-5.60;77.00
16032;DHT22;8120;48.308;8.914;2024-01-16T02:26:38;-5.60;77.30
16032;DHT22;8120;48.308;8.914;2024-01-16T02:29:06;-5.60;77.30
16032;DHT22;8120;48.308;8.914;2024-01-16T02:31:34;-5.70;77.20
16032;DHT22;8120;48.308;8.914;2024-01-16T02:34:02;-5.70;77.20
16032;DHT22;8120;48.308;8.914;2024-01-16T02:36:31;-5.70;77.00
16032;DHT22;8120;48.308;8.914;2024-01-16T02:38:59;-5.70;77.60
16032;DHT22;8120;48.308;8.914;2024-01-16T02:41:29;-5.80;77.70
16032;DHT22;8120;48.308;8.914;2024-01-16T02:43:57;-5.80;77.70
16032;DHT22;8120;48.308;8.914;2024-01-16T02:46:24;-5.90;77.80
16032;DHT22;8120;48.308;8.914;2024-01-16T02:48:52;-6.10;78.20
16032;DHT22;8120;48.308;8.914;2024-01-16T02:51:20;-6.20;79.00
16032;DHT22;8120;48.308;8.914;2024-01-16T02:53:48;-6.30;79.30
16032;DHT22;8120;48.308;8.914;2024-01-16T02:56:16;-6.40;79.30
16032;DHT22;8120;48.308;8.914;2024-01-16T02:58:45;-6.50;79.70
16032;DHT22;8120;48.308;8.914;2024-01-16T03:01:14;-6.60;80.40
16032;DHT22;8120;48.308;8.914;2024-01-16T03:03:41;-6.50;80.60
16032;DHT22;8120;48.308;8.914;2024-01-16T03:06:09;-6.50;80.30
16032;DHT22;8120;48.308;8.914;2024-01-16T03:08:37;-6.50;81.00
16032;DHT22;8120;48.308;8.914;2024-01-16T03:11:05;-6.60;80.40
16032;DHT22;8120;48.308;8.914;2024-01-16T03:13:34;-6.70;80.80
16032;DHT22;8120;48.308;8.914;2024-01-16T03:16:06;-6.70;80.70
16032;DHT22;8120;48.308;8.914;2024-01-16T03:18:34;-6.80;81.20
16032;DHT22;8120;48.308;8.914;2024-01-16T03:21:05;-6.90;81.90
16032;DHT22;8120;48.308;8.914;2024-01-16T03:23:34;-6.80;81.80
16032;DHT22;8120;48.308;8.914;2024-01-16T03:26:02;-6.90;82.00
16032;DHT22;8120;48.308;8.914;2024-01-16T03:28:30;-6.90;82.10
16032;DHT22;8120;48.308;8.914;2024-01-16T03:30:58;-6.90;82.20
16032;DHT22;8120;48.308;8.914;2024-01-16T03:33:27;-7.00;82.00
16032;DHT22;8120;48.308;8.914;2024-01-16T03:35:55;-7.10;82.20
16032;DHT22;8120;48.308;8.914;2024-01-16T03:38:23;-7.20;82.10
16032;DHT22;8120;48.308;8.914;2024-01-16T03:40:51;-7.30;82.80
16032;DHT22;8120;48.308;8.914;2024-01-16T03:43:19;-7.40;83.00
16032;DHT22;8120;48.308;8.914;2024-01-16T03:45:47;-7.50;83.10
16032;DHT22;8120;48.308;8.914;2024-01-16T03:48:15;-7.70;83.00
16032;DHT22;8120;48.308;8.914;2024-01-16T03:50:44;-7.80;83.60
16032;DHT22;8120;48.308;8.914;2024-01-16T03:53:14;-7.60;84.40
16032;DHT22;8120;48.308;8.914;2024-01-16T03:55:42;-7.70;83.80
16032;DHT22;8120;48.308;8.914;2024-01-16T03:58:10;-7.80;83.80
16032;DHT22;8120;48.308;8.914;2024-01-16T04:00:39;-8.00;84.00
16032;DHT22;8120;48.308;8.914;2024-01-16T04:03:07;-8.10;84.40
16032;DHT22;8120;48.308;8.914;2024-01-16T04:05:35;-8.20;84.60
16032;DHT22;8120;48.308;8.914;2024-01-16T04:08:06;-8.30;84.50
16032;DHT22;8120;48.308;8.914;2024-01-16T04:10:34;-8.40;84.90
16032;DHT22;8120;48.308;8.914;2024-01-16T04:13:02;-8.50;85.20
16032;DHT22;8120;48.308;8.914;2024-01-16T04:15:30;-8.60;85.50
16032;DHT22;8120;48.308;8.914;2024-01-16T04:17:58;-8.70;85.80
16032;DHT22;8120;48.308;8.914;2024-01-16T04:20:26;-8.80;85.80
16032;DHT22;8120;48.308;8.914;2024-01-16T04:22:54;-8.90;86.20
16032;DHT22;8120;48.308;8.914;2024-01-16T04:25:23;-8.90;86.80
16032;DHT22;8120;48.308;8.914;2024-01-16T04:27:51;-9.00;87.20
16032;DHT22;8120;48.308;8.914;2024-01-16T04:30:19;-9.10;87.00
16032;DHT22;8120;48.308;8.914;2024-01-16T04:32:48;-9.10;87.30
16032;DHT22;8120;48.308;8.914;2024-01-16T04:35:16;-9.20;87.50
16032;DHT22;8120;48.308;8.914;2024-01-16T04:37:44;-9.20;87.80
16032;DHT22;8120;48.308;8.914;2024-01-16T04:40:11;-9.20;88.40
16032;DHT22;8120;48.308;8.914;2024-01-16T04:42:41;-9.20;88.50
16032;DHT22;8120;48.308;8.914;2024-01-16T04:45:09;-9.10;89.10
16032;DHT22;8120;48.308;8.914;2024-01-16T04:47:37;-9.00;90.20
16032;DHT22;8120;48.308;8.914;2024-01-16T04:50:06;-8.60;89.30
16032;DHT22;8120;48.308;8.914;2024-01-16T04:52:34;-8.70;88.30
16032;DHT22;8120;48.308;8.914;2024-01-16T04:55:03;-8.90;87.80
16032;DHT22;8120;48.308;8.914;2024-01-16T04:57:31;-9.00;87.80
16032;DHT22;8120;48.308;8.914;2024-01-16T05:00:00;-9.10;88.20
16032;DHT22;8120;48.308;8.914;2024-01-16T05:02:32;-9.10;88.50
16032;DHT22;8120;48.308;8.914;2024-01-16T05:05:00;-9.20;88.30
16032;DHT22;8120;48.308;8.914;2024-01-16T05:07:28;-9.20;88.50
16032;DHT22;8120;48.308;8.914;2024-01-16T05:09:56;-9.30;88.40
16032;DHT22;8120;48.308;8.914;2024-01-16T05:12:24;-9.30;88.60
16032;DHT22;8120;48.308;8.914;2024-01-16T05:14:52;-9.40;88.70
16032;DHT22;8120;48.308;8.914;2024-01-16T05:17:22;-9.40;88.70
16032;DHT22;8120;48.308;8.914;2024-01-16T05:19:50;-9.50;88.60
16032;DHT22;8120;48.308;8.914;2024-01-16T05:22:18;-9.60;88.60
16032;DHT22;8120;48.308;8.914;2024-01-16T05:24:45;-9.60;88.90
16032;DHT22;8120;48.308;8.914;2024-01-16T05:27:13;-9.60;89.20
16032;DHT22;8120;48.308;8.914;2024-01-16T05:29:41;-9.60;89.30
16032;DHT22;8120;48.308;8.914;2024-01-16T05:32:10;-9.70;89.30
16032;DHT22;8120;48.308;8.914;2024-01-16T05:34:40;-9.60;89.50
16032;DHT22;8120;48.308;8.914;2024-01-16T05:37:08;-9.70;89.40
16032;DHT22;8120;48.308;8.914;2024-01-16T05:39:36;-9.70;89.60
16032;DHT22;8120;48.308;8.914;2024-01-16T05:42:04;-9.70;89.80
16032;DHT22;8120;48.308;8.914;2024-01-16T05:44:32;-9.70;90.00
16032;DHT22;8120;48.308;8.914;2024-01-16T05:47:00;-9.50;90.60
16032;DHT22;8120;48.308;8.914;2024-01-16T05:49:29;-9.30;91.10
16032;DHT22;8120;48.308;8.914;2024-01-16T05:51:58;-9.10;91.10
16032;DHT22;8120;48.308;8.914;2024-01-16T05:54:26;-9.20;90.40
16032;DHT22;8120;48.308;8.914;2024-01-16T05:56:54;-9.30;89.80
16032;DHT22;8120;48.308;8.914;2024-01-16T05:59:22;-9.20;90.10
16032;DHT22;8120;48.308;8.914;2024-01-16T06:01:49;-9.20;90.00
16032;DHT22;8120;48.308;8.914;2024-01-16T06:04:17;-9.40;89.80
16032;DHT22;8120;48.308;8.914;2024-01-16T06:06:45;-9.50;89.70
16032;DHT22;8120;48.308;8.914;2024-01-16T06:09:16;-9.40;89.90
16032;DHT22;8120;48.308;8.914;2024-01-16T06:11:45;-9.40;90.40
16032;DHT22;8120;48.308;8.914;2024-01-16T06:14:14;-9.40;90.30
16032;DHT22;8120;48.308;8.914;2024-01-16T06:16:48;-9.40;90.10
16032;DHT22;8120;48.308;8.914;2024-01-16T06:19:16;-9.60;89.60
16032;DHT22;8120;48.308;8.914;2024-01-16T06:21:44;-9.70;89.20
16032;DHT22;8120;48.308;8.914;2024-01-16T06:24:12;-9.80;88.90
16032;DHT22;8120;48.308;8.914;2024-01-16T06:26:41;-9.80;88.80
16032;DHT22;8120;48.308;8.914;2024-01-16T06:29:09;-9.80;88.80
16032;DHT22;8120;48.308;8.914;2024-01-16T06:31:50;-9.80;88.80
16032;DHT22;8120;48.308;8.914;2024-01-16T06:34:18;-9.80;88.70
16032;DHT22;8120;48.308;8.914;2024-01-16T06:36:46;-9.80;88.50
16032;DHT22;8120;48.308;8.914;2024-01-16T06:39:14;-9.80;88.50
16032;DHT22;8120;48.308;8.914;2024-01-16T06:41:43;-9.70;88.30
16032;DHT22;8120;48.308;8.914;2024-01-16T06:44:12;-9.70;88.20
16032;DHT22;8120;48.308;8.914;2024-01-16T06:46:39;-9.70;88.20
16032;DHT22;8120;48.308;8.914;2024-01-16T06:49:07;-9.70;88.40
16032;DHT22;8120;48.308;8.914;2024-01-16T06:51:35;-9.60;88.80
16032;DHT22;8120;48.308;8.914;2024-01-16T06:54:03;-9.50;89.20
16032;DHT22;8120;48.308;8.914;2024-01-16T06:56:32;-9.40;89.00
16032;DHT22;8120;48.308;8.914;2024-01-16T06:59:01;-9.40;89.00
16032;DHT22;8120;48.308;8.914;2024-01-16T07:01:29;-9.50;88.80
16032;DHT22;8120;48.308;8.914;2024-01-16T07:03:58;-9.50;88.60
16032;DHT22;8120;48.308;8.914;2024-01-16T07:06:26;-9.50;88.70
16032;DHT22;8120;48.308;8.914;2024-01-16T07:08:54;-9.40;88.90
16032;DHT22;8120;48.308;8.914;2024-01-16T07:11:22;-9.40;88.80
16032;DHT22;8120;48.308;8.914;2024-01-16T07:13:51;-9.30;88.90
16032;DHT22;8120;48.308;8.914;2024-01-16T07:16:20;-9.30;88.70
16032;DHT22;8120;48.308;8.914;2024-01-16T07:18:48;-9.30;88.70
16032;DHT22;8120;48.308;8.914;2024-01-16T07:21:17;-9.30;88.50
16032;DHT22;8120;48.308;8.914;2024-01-16T07:23:45;-9.20;88.60
16032;DHT22;8120;48.308;8.914;2024-01-16T07:26:13;-9.20;88.50
16032;DHT22;8120;48.308;8.914;2024-01-16T07:28:43;-9.10;88.10
16032;DHT22;8120;48.308;8.914;2024-01-16T07:31:11;-9.10;87.90
16032;DHT22;8120;48.308;8.914;2024-01-16T07:33:40;-9.00;87.70
16032;DHT22;8120;48.308;8.914;2024-01-16T07:36:10;-9.00;87.40
16032;DHT22;8120;48.308;8.914;2024-01-16T07:38:38;-8.90;87.20
16032;DHT22;8120;48.308;8.914;2024-01-16T07:41:06;-8.80;86.70
16032;DHT22;8120;48.308;8.914;2024-01-16T07:43:34;-8.70;86.30
16032;DHT22;8120;48.308;8.914;2024-01-16T07:46:03;-8.60;86.10
16032;DHT22;8120;48.308;8.914;2024-01-16T07:48:30;-8.50;85.30
16032;DHT22;8120;48.308;8.914;2024-01-16T07:50:59;-8.50;84.80
16032;DHT22;8120;48.308;8.914;2024-01-16T07:53:27;-8.40;84.80
16032;DHT22;8120;48.308;8.914;2024-01-16T07:55:55;-8.30;84.40
16032;DHT22;8120;48.308;8.914;2024-01-16T07:58:24;-8.30;84.30
16032;DHT22;8120;48.308;8.914;2024-01-16T08:00:51;-8.20;83.80
16032;DHT22;8120;48.308;8.914;2024-01-16T08:03:19;-8.10;84.10
16032;DHT22;8120;48.308;8.914;2024-01-16T08:05:47;-7.80;83.30
16032;DHT22;8120;48.308;8.914;2024-01-16T08:08:17;-7.50;82.70
16032;DHT22;8120;48.308;8.914;2024-01-16T08:10:45;-7.30;81.30
16032;DHT22;8120;48.308;8.914;2024-01-16T08:13:13;-7.20;80.60
16032;DHT22;8120;48.308;8.914;2024-01-16T08:15:41;-7.10;80.40
16032;DHT22;8120;48.308;8.914;2024-01-16T08:18:09;-7.00;79.60
16032;DHT22;8120;48.308;8.914;2024-01-16T08:20:37;-6.70;78.90
16032;DHT22;8120;48.308;8.914;2024-01-16T08:23:05;-7.00;78.30
16032;DHT22;8120;48.308;8.914;2024-01-16T08:25:34;-7.00;79.30
16032;DHT22;8120;48.308;8.914;2024-01-16T08:28:03;-6.90;79.20
16032;DHT22;8120;48.308;8.914;2024-01-16T08:30:31;-7.00;79.00
16032;DHT22;8120;48.308;8.914;2024-01-16T08:32:59;-7.00;80.00
16032;DHT22;8120;48.308;8.914;2024-01-16T08:35:27;-6.90;79.30
16032;DHT22;8120;48.308;8.914;2024-01-16T08:37:55;-6.80;79.70
16032;DHT22;8120;48.308;8.914;2024-01-16T08:40:23;-6.60;79.30
16032;DHT22;8120;48.308;8.914;2024-01-16T08:42:53;-6.40;78.90
16032;DHT22;8120;48.308;8.914;2024-01-16T08:45:24;-6.20;78.00
16032;DHT22;8120;48.308;8.914;2024-01-16T08:47:53;-6.00;78.00
16032;DHT22;8120;48.308;8.914;2024-01-16T08:50:21;-5.70;76.10
16032;DHT22;8120;48.308;8.914;2024-01-16T08:52:49;-5.60;75.80
16032;DHT22;8120;48.308;8.914;2024-01-16T08:55:18;-5.40;74.60
16032;DHT22;8120;48.308;8.914;2024-01-16T08:57:46;-5.30;73.80
16032;DHT22;8120;48.308;8.914;2024-01-16T09:00:16;-5.40;73.90
16032;DHT22;8120;48.308;8.914;2024-01-16T09:02:44;-5.60;74.60
16032;DHT22;8120;48.308;8.914;2024-01-16T09:05:12;-5.60;75.00
16032;DHT22;8120;48.308;8.914;2024-01-16T09:07:41;-5.70;76.50
16032;DHT22;8120;48.308;8.914;2024-01-16T09:10:10;-5.50;77.20
16032;DHT22;8120;48.308;8.914;2024-01-16T09:12:38;-5.10;76.80
16032;DHT22;8120;48.308;8.914;2024-01-16T09:15:07;-5.00;74.50
16032;DHT22;8120;48.308;8.914;2024-01-16T09:17:36;-5.20;75.50
16032;DHT22;8120;48.308;8.914;2024-01-16T09:20:07;-4.90;75.60
16032;DHT22;8120;48.308;8.914;2024-01-16T09:22:35;-4.80;74.20
16032;DHT22;8120;48.308;8.914;2024-01-16T09:25:03;-4.60;74.50
16032;DHT22;8120;48.308;8.914;2024-01-16T09:27:32;-4.40;73.10
16032;DHT22;8120;48.308;8.914;2024-01-16T09:30:00;-4.30;73.10
16032;DHT22;8120;48.308;8.914;2024-01-16T09:32:28;-4.00;72.40
16032;DHT22;8120;48.308;8.914;2024-01-16T09:34:57;-3.70;72.40
16032;DHT22;8120;48.308;8.914;2024-01-16T09:37:25;-3.60;70.50
16032;DHT22;8120;48.308;8.914;2024-01-16T09:39:53;-3.50;69.70
16032;DHT22;8120;48.308;8.914;2024-01-16T09:42:21;-3.40;68.90
16032;DHT22;8120;48.308;8.914;2024-01-16T09:44:49;-3.40;69.70
16032;DHT22;8120;48.308;8.914;2024-01-16T09:47:18;-3.20;69.50
16032;DHT22;8120;48.308;8.914;2024-01-16T09:49:47;-2.90;68.60
16032;DHT22;8120;48.308;8.914;2024-01-16T09:52:16;-2.50;66.40
16032;DHT22;8120;48.308;8.914;2024-01-16T09:54:44;-2.60;65.50
16032;DHT22;8120;48.308;8.914;2024-01-16T09:57:13;-2.50;65.90
16032;DHT22;8120;48.308;8.914;2024-01-16T09:59:42;-2.00;63.90
16032;DHT22;8120;48.308;8.914;2024-01-16T10:02:12;-1.60;63.20
16032;DHT22;8120;48.308;8.914;2024-01-16T10:04:42;-1.20;61.20
16032;DHT22;8120;48.308;8.914;2024-01-16T10:07:12;-1.20;61.50
16032;DHT22;8120;48.308;8.914;2024-01-16T10:09:42;-1.80;63.90
16032;DHT22;8120;48.308;8.914;2024-01-16T10:12:10;-1.60;63.70
16032;DHT22;8120;48.308;8.914;2024-01-16T10:14:39;-2.20;64.50
16032;DHT22;8120;48.308;8.914;2024-01-16T10:17:07;-2.30;66.70
16032;DHT22;8120;48.308;8.914;2024-01-16T10:19:48;-2.10;65.40
16032;DHT22;8120;48.308;8.914;2024-01-16T10:22:20;-1.70;64.20
16032;DHT22;8120;48.308;8.914;2024-01-16T10:25:04;-1.50;64.80
16032;DHT22;8120;48.308;8.914;2024-01-16T10:27:32;-1.60;64.00
16032;DHT22;8120;48.308;8.914;2024-01-16T10:30:00;-1.70;63.90
16032;DHT22;8120;48.308;8.914;2024-01-16T10:32:30;-2.20;66.80
16032;DHT22;8120;48.308;8.914;2024-01-16T10:35:06;-2.40;67.30
16032;DHT22;8120;48.308;8.914;2024-01-16T10:37:42;-2.20;66.80
16032;DHT22;8120;48.308;8.914;2024-01-16T10:40:15;-1.90;65.50
16032;DHT22;8120;48.308;8.914;2024-01-16T10:42:43;-1.70;64.60
16032;DHT22;8120;48.308;8.914;2024-01-16T10:45:17;-1.40;63.90
16032;DHT22;8120;48.308;8.914;2024-01-16T10:47:46;-1.10;62.20
16032;DHT22;8120;48.308;8.914;2024-01-16T10:50:15;-1.10;62.90
16032;DHT22;8120;48.308;8.914;2024-01-16T10:52:47;-1.20;62.50
16032;DHT22;8120;48.308;8.914;2024-01-16T10:55:20;-1.10;62.10
16032;DHT22;8120;48.308;8.914;2024-01-16T10:57:49;-1.10;62.30
16032;DHT22;8120;48.308;8.914;2024-01-16T11:00:19;-1.00;61.30
16032;DHT22;8120;48.308;8.914;2024-01-16T11:02:51;-1.20;61.00
16032;DHT22;8120;48.308;8.914;2024-01-16T11:05:20;-1.10;60.90
16032;DHT22;8120;48.308;8.914;2024-01-16T11:07:54;-1.20;61.10
16032;DHT22;8120;48.308;8.914;2024-01-16T11:10:24;-1.00;60.10
16032;DHT22;8120;48.308;8.914;2024-01-16T11:12:54;-0.80;59.60
16032;DHT22;8120;48.308;8.914;2024-01-16T11:15:23;-0.90;58.70
16032;DHT22;8120;48.308;8.914;2024-01-16T11:17:52;-0.80;58.60
16032;DHT22;8120;48.308;8.914;2024-01-16T11:20:21;-0.70;57.90
16032;DHT22;8120;48.308;8.914;2024-01-16T11:23:11;-0.70;57.00
16032;DHT22;8120;48.308;8.914;2024-01-16T11:25:40;-0.60;57.80
16032;DHT22;8120;48.308;8.914;2024-01-16T11:28:09;-0.60;56.30
16032;DHT22;8120;48.308;8.914;2024-01-16T11:30:38;-0.50;55.20
16032;DHT22;8120;48.308;8.914;2024-01-16T11:33:07;-0.40;56.60
16032;DHT22;8120;48.308;8.914;2024-01-16T11:35:54;-0.70;56.40
16032;DHT22;8120;48.308;8.914;2024-01-16T11:38:24;-1.10;55.70
16032;DHT22;8120;48.308;8.914;2024-01-16T11:40:55;-1.00;57.10
16032;DHT22;8120;48.308;8.914;2024-01-16T11:43:36;-0.80;55.20
16032;DHT22;8120;48.308;8.914;2024-01-16T11:46:05;-0.70;54.90
16032;DHT22;8120;48.308;8.914;2024-01-16T11:48:34;-0.50;54.50
16032;DHT22;8120;48.308;8.914;2024-01-16T11:51:23;-0.30;54.60
16032;DHT22;8120;48.308;8.914;2024-01-16T11:53:51;-0.20;54.10
16032;DHT22;8120;48.308;8.914;2024-01-16T11:56:52;-0.30;55.00
16032;DHT22;8120;48.308;8.914;2024-01-16T11:59:50;-0.60;56.00
16032;DHT22;8120;48.308;8.914;2024-01-16T12:02:29;-0.80;56.30
16032;DHT22;8120;48.308;8.914;2024-01-16T12:05:01;-1.10;57.20
16032;DHT22;8120;48.308;8.914;2024-01-16T12:07:45;-0.70;57.00
16032;DHT22;8120;48.308;8.914;2024-01-16T12:10:13;-0.50;56.90
16032;DHT22;8120;48.308;8.914;2024-01-16T12:12:43;-0.40;56.00
16032;DHT22;8120;48.308;8.914;2024-01-16T12:15:15;-0.20;55.00
16032;DHT22;8120;48.308;8.914;2024-01-16T12:17:54;-0.30;55.50
16032;DHT22;8120;48.308;8.914;2024-01-16T12:20:24;-0.20;55.20
16032;DHT22;8120;48.308;8.914;2024-01-16T12:22:54;-0.10;54.60
16032;DHT22;8120;48.308;8.914;2024-01-16T12:25:22;-0.10;54.80
16032;DHT22;8120;48.308;8.914;2024-01-16T12:28:12;-0.10;55.50
16032;DHT22;8120;48.308;8.914;2024-01-16T12:30:58;-0.20;55.90
16032;DHT22;8120;48.308;8.914;2024-01-16T12:33:27;0.00;54.80
16032;DHT22;8120;48.308;8.914;2024-01-16T12:36:01;0.00;55.80
16032;DHT22;8120;48.308;8.914;2024-01-16T12:38:30;-0.10;55.20
16032;DHT22;8120;48.308;8.914;2024-01-16T12:40:58;-0.10;54.30
16032;DHT22;8120;48.308;8.914;2024-01-16T12:43:31;0.00;55.40
16032;DHT22;8120;48.308;8.914;2024-01-16T12:45:59;0.00;55.90
16032;DHT22;8120;48.308;8.914;2024-01-16T12:48:27;0.10;55.50
16032;DHT22;8120;48.308;8.914;2024-01-16T12:50:59;0.00;54.70
16032;DHT22;8120;48.308;8.914;2024-01-16T12:53:28;0.00;55.60
16032;DHT22;8120;48.308;8.914;2024-01-16T12:56:00;0.10;56.30
16032;DHT22;8120;48.308;8.914;2024-01-16T12:58:34;0.10;54.80
16032;DHT22;8120;48.308;8.914;2024-01-16T13:01:22;0.10;54.80
16032;DHT22;8120;48.308;8.914;2024-01-16T13:04:05;0.00;54.30
16032;DHT22;8120;48.308;8.914;2024-01-16T13:06:33;0.10;55.10
16032;DHT22;8120;48.308;8.914;2024-01-16T13:09:05;0.10;54.60
16032;DHT22;8120;48.308;8.914;2024-01-16T13:11:48;0.00;55.20
16032;DHT22;8120;48.308;8.914;2024-01-16T13:14:18;0.00;54.90
16032;DHT22;8120;48.308;8.914;2024-01-16T13:16:49;0.10;54.20
16032;DHT22;8120;48.308;8.914;2024-01-16T13:19:18;0.10;53.80
16032;DHT22;8120;48.308;8.914;2024-01-16T13:21:46;0.10;55.20
16032;DHT22;8120;48.308;8.914;2024-01-16T13:24:14;-0.10;54.70
16032;DHT22;8120;48.308;8.914;2024-01-16T13:26:44;-0.20;56.60
16032;DHT22;8120;48.308;8.914;2024-01-16T13:29:12;-0.10;55.70
16032;DHT22;8120;48.308;8.914;2024-01-16T13:31:42;-0.20;55.10
16032;DHT22;8120;48.308;8.914;2024-01-16T13:34:10;-0.40;55.80
16032;DHT22;8120;48.308;8.914;2024-01-16T13:36:38;-0.40;55.90
16032;DHT22;8120;48.308;8.914;2024-01-16T13:39:27;-0.50;57.30
16032;DHT22;8120;48.308;8.914;2024-01-16T13:41:54;-0.50;56.60
16032;DHT22;8120;48.308;8.914;2024-01-16T13:44:22;-0.40;56.40
16032;DHT22;8120;48.308;8.914;2024-01-16T13:46:52;-0.40;56.20
16032;DHT22;8120;48.308;8.914;2024-01-16T13:49:33;-0.30;56.80
16032;DHT22;8120;48.308;8.914;2024-01-16T13:52:01;-0.30;56.30
16032;DHT22;8120;48.308;8.914;2024-01-16T13:54:30;-0.20;56.90
16032;DHT22;8120;48.308;8.914;2024-01-16T13:56:58;-0.30;57.50
16032;DHT22;8120;48.308;8.914;2024-01-16T13:59:34;-0.30;57.00
16032;DHT22;8120;48.308;8.914;2024-01-16T14:02:04;-0.10;55.60
16032;DHT22;8120;48.308;8.914;2024-01-16T14:04:32;-0.10;56.40
16032;DHT22;8120;48.308;8.914;2024-01-16T14:07:01;-0.30;56.40
16032;DHT22;8120;48.308;8.914;2024-01-16T14:09:40;-0.40;57.00
16032;DHT22;8120;48.308;8.914;2024-01-16T14:12:11;-0.50;57.60
16032;DHT22;8120;48.308;8.914;2024-01-16T14:14:40;-0.50;57.60
16032;DHT22;8120;48.308;8.914;2024-01-16T14:17:09;-0.50;57.10
16032;DHT22;8120;48.308;8.914;2024-01-16T14:19:37;-0.50;57.50
16032;DHT22;8120;48.308;8.914;2024-01-16T14:22:05;-0.40;57.20
16032;DHT22;8120;48.308;8.914;2024-01-16T14:24:33;-0.50;57.70
16032;DHT22;8120;48.308;8.914;2024-01-16T14:27:01;-0.50;57.50
16032;DHT22;8120;48.308;8.914;2024-01-16T14:29:29;-0.50;57.50
16032;DHT22;8120;48.308;8.914;2024-01-16T14:31:57;-0.60;57.40
16032;DHT22;8120;48.308;8.914;2024-01-16T14:34:27;-0.70;57.60
16032;DHT22;8120;48.308;8.914;2024-01-16T14:36:55;-0.80;58.20
16032;DHT22;8120;48.308;8.914;2024-01-16T14:39:23;-0.80;58.90
16032;DHT22;8120;48.308;8.914;2024-01-16T14:41:53;-0.80;58.40
16032;DHT22;8120;48.308;8.914;2024-01-16T14:44:21;-0.90;58.50
16032;DHT22;8120;48.308;8.914;2024-01-16T14:46:49;-0.90;59.00
16032;DHT22;8120;48.308;8.914;2024-01-16T14:49:21;-1.00;59.30
16032;DHT22;8120;48.308;8.914;2024-01-16T14:51:50;-1.10;59.40
16032;DHT22;8120;48.308;8.914;2024-01-16T14:54:18;-1.10;59.30
16032;DHT22;8120;48.308;8.914;2024-01-16T14:56:46;-1.20;59.70
16032;DHT22;8120;48.308;8.914;2024-01-16T14:59:15;-1.20;59.90
16032;DHT22;8120;48.308;8.914;2024-01-16T15:01:44;-1.30;60.00
16032;DHT22;8120;48.308;8.914;2024-01-16T15:04:12;-1.30;60.50
16032;DHT22;8120;48.308;8.914;2024-01-16T15:06:40;-1.40;60.20
16032;DHT22;8120;48.308;8.914;2024-01-16T15:09:10;-1.40;60.40
16032;DHT22;8120;48.308;8.914;2024-01-16T15:11:39;-1.50;60.50
16032;DHT22;8120;48.308;8.914;2024-01-16T15:14:11;-1.50;60.30
16032;DHT22;8120;48.308;8.914;2024-01-16T15:16:39;-1.60;60.60
16032;DHT22;8120;48.308;8.914;2024-01-16T15:19:07;-1.70;61.20
16032;DHT22;8120;48.308;8.914;2024-01-16T15:21:35;-1.80;61.80
16032;DHT22;8120;48.308;8.914;2024-01-16T15:24:03;-1.90;62.30
16032;DHT22;8120;48.308;8.914;2024-01-16T15:26:33;-1.90;62.40
16032;DHT22;8120;48.308;8.914;2024-01-16T15:29:00;-2.00;63.10
16032;DHT22;8120;48.308;8.914;2024-01-16T15:31:28;-2.10;63.20
16032;DHT22;8120;48.308;8.914;2024-01-16T15:33:56;-2.30;63.50
16032;DHT22;8120;48.308;8.914;2024-01-16T15:36:24;-2.40;63.60
16032;DHT22;8120;48.308;8.914;2024-01-16T15:38:52;-2.50;64.00
16032;DHT22;8120;48.308;8.914;2024-01-16T15:41:21;-2.50;64.00
16032;DHT22;8120;48.308;8.914;2024-01-16T15:43:50;-2.60;64.10
16032;DHT22;8120;48.308;8.914;2024-01-16T15:46:18;-2.90;65.80
16032;DHT22;8120;48.308;8.914;2024-01-16T15:48:47;-3.10;68.50
16032;DHT22;8120;48.308;8.914;2024-01-16T15:51:17;-3.20;69.60
16032;DHT22;8120;48.308;8.914;2024-01-16T15:53:45;-3.50;70.60
16032;DHT22;8120;48.308;8.914;2024-01-16T15:56:13;-3.60;71.60
16032;DHT22;8120;48.308;8.914;2024-01-16T15:58:42;-3.80;72.70
16032;DHT22;8120;48.308;8.914;2024-01-16T16:01:11;-3.90;73.40